createdAt,value
2019-02-10T00:02:08.199Z,8.26
2019-02-10T00:04:37.004Z,8.23
2019-02-10T00:07:05.816Z,8.22
2019-02-10T00:09:34.647Z,8.22
2019-02-10T00:12:03.436Z,8.21
2019-02-10T00:14:32.311Z,8.21
2019-02-10T00:17:01.691Z,8.20
2019-02-10T00:19:30.546Z,8.19
2019-02-10T00:21:59.334Z,8.18
2019-02-10T00:24:28.135Z,8.19
2019-02-10T00:26:56.963Z,8.19
2019-02-10T00:29:25.752Z,8.20
2019-02-10T00:31:54.555Z,8.22
2019-02-10T00:34:23.371Z,8.23
2019-02-10T00:36:52.545Z,8.23
2019-02-10T00:39:22.550Z,8.24
2019-02-10T00:41:52.069Z,8.24
2019-02-10T00:44:21.957Z,8.25
2019-02-10T00:46:50.699Z,8.26
2019-02-10T00:49:20.091Z,8.25
2019-02-10T00:51:49.426Z,8.26
2019-02-10T00:54:18.193Z,8.25
2019-02-10T00:56:46.990Z,8.25
2019-02-10T00:59:17.426Z,8.25
2019-02-10T01:01:46.286Z,8.26
2019-02-10T01:04:15.122Z,8.27
2019-02-10T01:06:43.915Z,8.29
2019-02-10T01:09:12.819Z,8.29
2019-02-10T01:11:41.688Z,8.29
2019-02-10T01:14:10.475Z,8.31
2019-02-10T01:16:39.241Z,8.32
2019-02-10T01:19:09.454Z,8.33
2019-02-10T01:21:40.844Z,8.34
2019-02-10T01:24:09.667Z,8.34
2019-02-10T01:26:38.441Z,8.35
2019-02-10T01:29:07.267Z,8.35
2019-02-10T01:31:36.030Z,8.37
2019-02-10T01:34:04.847Z,8.38
2019-02-10T01:36:33.720Z,8.39
2019-02-10T01:39:02.500Z,8.39
2019-02-10T01:41:31.916Z,8.40
2019-02-10T01:44:01.197Z,8.41
2019-02-10T01:46:29.998Z,8.39
2019-02-10T01:48:58.936Z,8.40
2019-02-10T01:51:28.228Z,8.42
2019-02-10T01:53:57.048Z,8.42
2019-02-10T01:56:25.847Z,8.43
2019-02-10T01:58:54.639Z,8.44
2019-02-10T02:01:23.411Z,8.44
2019-02-10T02:03:52.174Z,8.44
2019-02-10T02:06:21.005Z,8.43
2019-02-10T02:08:50.046Z,8.44
2019-02-10T02:11:18.843Z,8.42
2019-02-10T02:13:47.622Z,8.42
2019-02-10T02:16:16.748Z,8.39
2019-02-10T02:18:45.533Z,8.38
2019-02-10T02:21:14.367Z,8.38
2019-02-10T02:23:43.258Z,8.37
2019-02-10T02:26:12.264Z,8.37
2019-02-10T02:28:41.014Z,8.38
2019-02-10T02:31:09.893Z,8.37
2019-02-10T02:33:40.073Z,8.38
2019-02-10T02:36:09.795Z,8.36
2019-02-10T02:38:38.866Z,8.37
2019-02-10T02:41:07.734Z,8.36
2019-02-10T02:43:37.286Z,8.34
2019-02-10T02:46:06.123Z,8.30
2019-02-10T02:48:35.544Z,8.28
2019-02-10T02:51:04.313Z,8.24
2019-02-10T02:53:33.128Z,8.20
2019-02-10T02:56:01.885Z,8.20
2019-02-10T02:58:31.787Z,8.20
2019-02-10T03:01:00.535Z,8.18
2019-02-10T03:03:29.310Z,8.17
2019-02-10T03:05:58.110Z,8.12
2019-02-10T03:08:26.907Z,8.09
2019-02-10T03:10:56.925Z,8.07
2019-02-10T03:13:25.814Z,8.04
2019-02-10T03:15:54.653Z,8.05
2019-02-10T03:18:23.478Z,8.02
2019-02-10T03:20:52.261Z,8.00
2019-02-10T03:23:21.114Z,7.99
2019-02-10T03:25:49.957Z,7.97
2019-02-10T03:28:18.794Z,7.97
2019-02-10T03:30:47.754Z,7.94
2019-02-10T03:33:20.220Z,7.92
2019-02-10T03:35:49.135Z,7.89
2019-02-10T03:38:18.511Z,7.87
2019-02-10T03:40:47.400Z,7.84
2019-02-10T03:43:17.154Z,7.81
2019-02-10T03:45:46.070Z,7.80
2019-02-10T03:48:14.914Z,7.81
2019-02-10T03:50:43.776Z,7.78
2019-02-10T03:53:13.096Z,7.75
2019-02-10T03:55:41.957Z,7.75
2019-02-10T03:58:10.745Z,7.76
2019-02-10T04:00:40.067Z,7.79
2019-02-10T04:03:08.900Z,7.78
2019-02-10T04:05:37.706Z,7.76
2019-02-10T04:08:06.542Z,7.69
2019-02-10T04:10:35.355Z,7.59
2019-02-10T04:13:04.789Z,7.54
2019-02-10T04:15:33.642Z,7.51
2019-02-10T04:18:02.514Z,7.53
2019-02-10T04:20:31.308Z,7.52
2019-02-10T04:23:00.243Z,7.53
2019-02-10T04:25:29.090Z,7.56
2019-02-10T04:27:57.872Z,7.54
2019-02-10T04:30:26.743Z,7.54
2019-02-10T04:32:55.596Z,7.48
2019-02-10T04:35:24.415Z,7.42
2019-02-10T04:37:53.224Z,7.42
2019-02-10T04:40:22.056Z,7.47
2019-02-10T04:42:51.294Z,7.43
2019-02-10T04:45:20.074Z,7.40
2019-02-10T04:47:49.180Z,7.34
2019-02-10T04:50:18.561Z,7.32
2019-02-10T04:52:47.428Z,7.32
2019-02-10T04:55:16.870Z,7.28
2019-02-10T04:57:45.728Z,7.26
2019-02-10T05:00:14.688Z,7.25
2019-02-10T05:02:43.590Z,7.25
2019-02-10T05:05:12.399Z,7.27
2019-02-10T05:07:41.207Z,7.30
2019-02-10T05:10:09.990Z,7.33
2019-02-10T05:12:38.808Z,7.34
2019-02-10T05:15:07.632Z,7.37
2019-02-10T05:17:36.392Z,7.40
2019-02-10T05:20:05.659Z,7.45
2019-02-10T05:22:34.576Z,7.46
2019-02-10T05:25:03.412Z,7.47
2019-02-10T05:27:32.275Z,7.47
2019-02-10T05:30:01.217Z,7.50
2019-02-10T05:32:30.754Z,7.55
2019-02-10T05:34:59.532Z,7.58
2019-02-10T05:37:28.306Z,7.61
2019-02-10T05:39:57.219Z,7.62
2019-02-10T05:42:26.006Z,7.64
2019-02-10T05:44:54.938Z,7.68
2019-02-10T05:47:23.771Z,7.71
2019-02-10T05:49:52.594Z,7.76
2019-02-10T05:52:21.518Z,7.78
2019-02-10T05:54:51.291Z,7.80
2019-02-10T05:57:20.179Z,7.82
2019-02-10T05:59:49.917Z,7.84
2019-02-10T06:02:24.447Z,7.89
2019-02-10T06:04:53.291Z,7.92
2019-02-10T06:07:22.080Z,7.95
2019-02-10T06:09:50.935Z,7.99
2019-02-10T06:12:19.716Z,8.00
2019-02-10T06:14:48.553Z,8.03
2019-02-10T06:17:17.429Z,8.03
2019-02-10T06:19:46.235Z,8.05
2019-02-10T06:22:15.071Z,8.07
2019-02-10T06:24:43.838Z,8.08
2019-02-10T06:27:13.962Z,8.10
2019-02-10T06:29:42.807Z,8.12
2019-02-10T06:32:11.692Z,8.12
2019-02-10T06:34:41.219Z,8.14
2019-02-10T06:37:10.131Z,8.15
2019-02-10T06:39:38.927Z,8.15
2019-02-10T06:42:07.772Z,8.16
2019-02-10T06:44:36.587Z,8.19
2019-02-10T06:47:05.468Z,8.19
2019-02-10T06:49:34.328Z,8.22
2019-02-10T06:52:03.154Z,8.25
2019-02-10T06:54:31.921Z,8.29
2019-02-10T06:57:00.690Z,8.33
2019-02-10T06:59:34.842Z,8.38
2019-02-10T07:02:08.989Z,8.41
2019-02-10T07:04:37.860Z,8.44
2019-02-10T07:07:06.649Z,8.49
2019-02-10T07:09:35.417Z,8.51
2019-02-10T07:12:17.366Z,8.54
2019-02-10T07:14:46.168Z,8.55
2019-02-10T07:17:29.141Z,8.60
2019-02-10T07:20:07.965Z,8.62
2019-02-10T07:23:01.826Z,8.64
2019-02-10T07:25:48.545Z,8.65
2019-02-10T07:28:29.202Z,8.68
2019-02-10T07:30:58.035Z,8.70
2019-02-10T07:35:42.282Z,8.73
2019-02-10T07:38:17.830Z,8.73
2019-02-10T07:41:00.739Z,8.75
2019-02-10T07:43:51.973Z,8.77
2019-02-10T07:46:32.002Z,8.80
2019-02-10T07:49:12.731Z,8.83
2019-02-10T07:52:58.288Z,8.86
2019-02-10T07:55:38.206Z,8.87
2019-02-10T07:58:27.848Z,8.90
2019-02-10T08:01:12.439Z,8.90
2019-02-10T08:03:54.188Z,8.92
2019-02-10T08:06:31.166Z,8.94
2019-02-10T08:09:12.159Z,8.95
2019-02-10T08:11:54.399Z,8.99
2019-02-10T08:14:36.702Z,9.03
2019-02-10T08:17:20.502Z,9.07
2019-02-10T08:21:22.203Z,9.13
2019-02-10T08:24:03.820Z,9.18
2019-02-10T08:26:41.582Z,9.20
2019-02-10T08:29:39.785Z,9.22
2019-02-10T08:32:24.801Z,9.25
2019-02-10T08:36:06.559Z,9.30
2019-02-10T08:40:55.542Z,9.32
2019-02-10T08:44:35.079Z,9.31
2019-02-10T08:47:33.629Z,9.32
2019-02-10T08:52:16.160Z,9.34
2019-02-10T08:54:45.027Z,9.39
2019-02-10T08:57:14.035Z,9.43
2019-02-10T08:59:42.903Z,9.48
2019-02-10T09:02:12.752Z,9.51
2019-02-10T09:04:41.571Z,9.52
2019-02-10T09:07:10.435Z,9.55
2019-02-10T09:09:39.298Z,9.56
2019-02-10T09:12:08.655Z,9.59
2019-02-10T09:14:37.464Z,9.62
2019-02-10T09:17:06.718Z,9.65
2019-02-10T09:19:36.331Z,9.68
2019-02-10T09:22:05.119Z,9.70
2019-02-10T09:24:34.518Z,9.75
2019-02-10T09:27:07.122Z,9.80
2019-02-10T09:29:36.451Z,9.88
2019-02-10T09:32:05.246Z,9.97
2019-02-10T09:34:34.073Z,10.07
2019-02-10T09:37:03.614Z,10.14
2019-02-10T09:39:32.471Z,10.24
2019-02-10T09:42:01.961Z,10.29
2019-02-10T09:44:31.237Z,10.36
2019-02-10T09:47:00.108Z,10.45
2019-02-10T09:49:28.912Z,10.50
2019-02-10T09:51:57.742Z,10.52
2019-02-10T09:54:28.458Z,10.49
2019-02-10T09:56:57.207Z,10.46
2019-02-10T09:59:26.069Z,10.42
2019-02-10T10:01:54.847Z,10.35
2019-02-10T10:04:23.629Z,10.28
2019-02-10T10:06:52.417Z,10.18
2019-02-10T10:09:21.218Z,10.12
2019-02-10T10:11:50.047Z,10.06
2019-02-10T10:14:19.780Z,10.02
2019-02-10T10:16:47.670Z,9.98
2019-02-10T10:19:16.600Z,9.89
2019-02-10T10:21:45.357Z,9.85
2019-02-10T10:24:14.128Z,9.82
2019-02-10T10:26:42.903Z,9.81
2019-02-10T10:29:11.678Z,9.85
2019-02-10T10:31:40.443Z,9.92
2019-02-10T10:34:09.210Z,9.98
2019-02-10T10:36:37.995Z,10.09
2019-02-10T10:39:06.910Z,10.14
2019-02-10T10:41:35.708Z,10.17
2019-02-10T10:44:04.506Z,10.11
2019-02-10T10:46:34.044Z,10.04
2019-02-10T10:49:02.925Z,10.02
2019-02-10T10:51:31.723Z,9.97
2019-02-10T10:54:00.630Z,9.93
2019-02-10T10:56:29.521Z,9.90
2019-02-10T10:58:59.128Z,9.87
2019-02-10T11:01:28.565Z,9.85
2019-02-10T11:03:57.443Z,9.84
2019-02-10T11:06:26.276Z,9.86
2019-02-10T11:08:55.786Z,9.82
2019-02-10T11:11:24.564Z,9.76
2019-02-10T11:13:53.382Z,9.72
2019-02-10T11:16:22.259Z,9.68
2019-02-10T11:18:51.354Z,9.68
2019-02-10T11:21:21.504Z,9.67
2019-02-10T11:23:50.401Z,9.71
2019-02-10T11:26:19.227Z,9.69
2019-02-10T11:28:48.902Z,9.69
2019-02-10T11:31:17.734Z,9.72
2019-02-10T11:33:46.541Z,9.72
2019-02-10T11:36:23.131Z,9.74
2019-02-10T11:38:51.955Z,9.84
2019-02-10T11:41:20.785Z,9.88
2019-02-10T11:43:49.575Z,9.86
2019-02-10T11:46:19.982Z,9.82
2019-02-10T11:48:48.802Z,9.79
2019-02-10T11:51:17.639Z,9.80
2019-02-10T11:53:46.882Z,9.85
2019-02-10T11:56:16.361Z,9.87
2019-02-10T11:58:45.136Z,9.81
2019-02-10T12:01:14.195Z,9.77
2019-02-10T12:03:46.623Z,9.71
2019-02-10T12:06:15.745Z,9.65
2019-02-10T12:08:47.612Z,9.59
2019-02-10T12:11:16.425Z,9.55
2019-02-10T12:13:45.357Z,9.57
2019-02-10T12:16:14.155Z,9.55
2019-02-10T12:18:44.205Z,9.55
2019-02-10T12:21:14.406Z,9.49
2019-02-10T12:23:45.046Z,9.44
2019-02-10T12:26:15.569Z,9.42
2019-02-10T12:28:45.698Z,9.47
2019-02-10T12:31:14.498Z,9.53
2019-02-10T12:33:43.274Z,9.53
2019-02-10T12:36:12.104Z,9.48
2019-02-10T12:38:41.043Z,9.42
2019-02-10T12:41:10.755Z,9.34
2019-02-10T12:43:39.566Z,9.22
2019-02-10T12:46:09.044Z,9.13
2019-02-10T12:48:38.560Z,8.96
2019-02-10T12:51:07.336Z,8.92
2019-02-10T12:53:36.540Z,8.97
2019-02-10T12:56:05.334Z,8.98
2019-02-10T12:58:34.181Z,9.01
2019-02-10T13:01:03.080Z,8.98
2019-02-10T13:03:35.890Z,8.92
2019-02-10T13:06:04.667Z,8.98
2019-02-10T13:08:35.576Z,9.09
2019-02-10T13:11:04.327Z,9.24
2019-02-10T13:13:33.114Z,9.31
2019-02-10T13:16:01.996Z,9.26
2019-02-10T13:18:30.880Z,9.20
2019-02-10T13:21:00.255Z,9.23
2019-02-10T13:23:29.047Z,9.21
2019-02-10T13:25:57.946Z,9.18
2019-02-10T13:28:27.915Z,9.10
2019-02-10T13:30:55.613Z,9.01
2019-02-10T13:33:25.120Z,8.98
2019-02-10T13:35:57.781Z,9.01
2019-02-10T13:38:27.309Z,9.05
2019-02-10T13:40:56.126Z,9.08
2019-02-10T13:43:24.903Z,9.03
2019-02-10T13:45:54.599Z,9.04
2019-02-10T13:48:23.572Z,9.03
2019-02-10T13:50:52.330Z,9.06
2019-02-10T13:53:21.300Z,9.13
2019-02-10T13:55:50.162Z,9.17
2019-02-10T13:58:19.101Z,9.23
2019-02-10T14:00:47.869Z,9.23
2019-02-10T14:03:17.244Z,9.29
2019-02-10T14:05:46.011Z,9.34
2019-02-10T14:08:14.840Z,9.39
2019-02-10T14:10:43.657Z,9.41
2019-02-10T14:13:12.419Z,9.37
2019-02-10T14:15:41.267Z,9.33
2019-02-10T14:18:10.040Z,9.32
2019-02-10T14:20:39.147Z,9.29
2019-02-10T14:23:07.957Z,9.24
2019-02-10T14:25:36.745Z,9.17
2019-02-10T14:28:05.638Z,9.11
2019-02-10T14:30:34.751Z,9.04
2019-02-10T14:33:03.542Z,8.97
2019-02-10T14:35:32.434Z,8.92
2019-02-10T14:38:03.429Z,8.92
2019-02-10T14:40:33.940Z,8.88
2019-02-10T14:43:01.663Z,8.88
2019-02-10T14:45:30.456Z,8.88
2019-02-10T14:47:59.238Z,8.86
2019-02-10T14:50:29.082Z,8.85
2019-02-10T14:52:56.967Z,8.85
2019-02-10T14:55:25.851Z,8.85
2019-02-10T14:57:55.922Z,8.80
2019-02-10T15:00:24.780Z,8.82
2019-02-10T15:02:53.568Z,8.83
2019-02-10T15:05:22.372Z,8.76
2019-02-10T15:07:51.234Z,8.77
2019-02-10T15:10:21.127Z,8.80
2019-02-10T15:12:49.928Z,8.79
2019-02-10T15:15:18.727Z,8.76
2019-02-10T15:17:48.256Z,8.75
2019-02-10T15:20:17.709Z,8.74
2019-02-10T15:22:46.508Z,8.70
2019-02-10T15:25:15.341Z,8.61
2019-02-10T15:27:45.467Z,8.53
2019-02-10T15:30:16.392Z,8.48
2019-02-10T15:32:46.617Z,8.41
2019-02-10T15:35:15.374Z,8.33
2019-02-10T15:37:44.180Z,8.23
2019-02-10T15:40:13.002Z,8.17
2019-02-10T15:42:43.119Z,8.12
2019-02-10T15:45:12.847Z,8.02
2019-02-10T15:47:42.231Z,7.89
2019-02-10T15:50:11.790Z,7.85
2019-02-10T15:52:40.615Z,7.74
2019-02-10T15:55:10.130Z,7.65
2019-02-10T15:57:38.955Z,7.56
2019-02-10T16:00:11.031Z,7.47
2019-02-10T16:02:39.820Z,7.37
2019-02-10T16:05:08.887Z,7.25
2019-02-10T16:07:37.847Z,7.10
2019-02-10T16:10:09.091Z,7.06
2019-02-10T16:12:39.731Z,6.97
2019-02-10T16:15:09.148Z,6.93
2019-02-10T16:17:38.633Z,6.87
2019-02-10T16:20:09.082Z,6.83
2019-02-10T16:22:38.041Z,6.81
2019-02-10T16:25:06.855Z,6.75
2019-02-10T16:27:36.376Z,6.72
2019-02-10T16:30:06.622Z,6.70
2019-02-10T16:32:35.456Z,6.67
2019-02-10T16:35:04.337Z,6.62
2019-02-10T16:37:33.816Z,6.56
2019-02-10T16:40:02.711Z,6.52
2019-02-10T16:42:31.536Z,6.52
2019-02-10T16:45:00.364Z,6.53
2019-02-10T16:47:29.216Z,6.54
2019-02-10T16:49:57.999Z,6.51
2019-02-10T16:52:26.762Z,6.50
2019-02-10T16:54:55.573Z,6.51
2019-02-10T16:57:24.381Z,6.50
2019-02-10T16:59:53.198Z,6.43
2019-02-10T17:02:22.052Z,6.37
2019-02-10T17:04:50.843Z,6.38
2019-02-10T17:07:20.341Z,6.35
2019-02-10T17:09:49.194Z,6.36
2019-02-10T17:12:18.116Z,6.37
2019-02-10T17:14:47.465Z,6.37
2019-02-10T17:17:16.783Z,6.35
2019-02-10T17:19:45.554Z,6.34
2019-02-10T17:22:14.406Z,6.31
2019-02-10T17:24:43.955Z,6.27
2019-02-10T17:27:13.718Z,6.21
2019-02-10T17:29:43.332Z,6.18
2019-02-10T17:32:12.634Z,6.17
2019-02-10T17:34:42.096Z,6.16
2019-02-10T17:37:10.882Z,6.13
2019-02-10T17:39:40.104Z,6.11
2019-02-10T17:42:08.887Z,6.12
2019-02-10T17:44:37.659Z,6.12
2019-02-10T17:47:06.527Z,6.05
2019-02-10T17:49:35.356Z,6.01
2019-02-10T17:52:04.218Z,5.93
2019-02-10T17:54:33.096Z,5.90
2019-02-10T17:57:01.876Z,5.94
2019-02-10T17:59:30.743Z,5.96
2019-02-10T18:01:59.583Z,5.93
2019-02-10T18:04:28.447Z,5.93
2019-02-10T18:06:57.231Z,5.90
2019-02-10T18:09:26.363Z,5.90
2019-02-10T18:11:56.614Z,5.89
2019-02-10T18:15:32.552Z,5.88
2019-02-10T18:18:08.622Z,5.82
2019-02-10T18:20:41.612Z,5.77
2019-02-10T18:23:15.652Z,5.74
2019-02-10T18:26:21.256Z,5.71
2019-02-10T18:28:55.085Z,5.70
2019-02-10T18:31:28.174Z,5.71
2019-02-10T18:34:11.154Z,5.71
2019-02-10T18:36:49.215Z,5.69
2019-02-10T18:39:25.240Z,5.66
2019-02-10T18:42:00.165Z,5.66
2019-02-10T18:44:33.718Z,5.62
2019-02-10T18:47:07.754Z,5.60
2019-02-10T18:49:41.731Z,5.57
2019-02-10T18:54:18.683Z,5.55
2019-02-10T18:56:52.610Z,5.50
2019-02-10T19:00:29.392Z,5.49
2019-02-10T19:03:03.147Z,5.44
2019-02-10T19:05:37.190Z,5.45
2019-02-10T19:08:12.301Z,5.46
2019-02-10T19:10:52.168Z,5.45
2019-02-10T19:13:26.134Z,5.46
2019-02-10T19:18:09.416Z,5.42
2019-02-10T19:20:44.393Z,5.37
2019-02-10T19:24:17.058Z,5.38
2019-02-10T19:26:58.027Z,5.39
2019-02-10T19:29:37.123Z,5.42
2019-02-10T19:32:11.240Z,5.40
2019-02-10T19:34:47.128Z,5.33
2019-02-10T19:37:21.172Z,5.25
2019-02-10T19:39:55.072Z,5.24
2019-02-10T19:42:31.043Z,5.24
2019-02-10T19:45:10.177Z,5.14
2019-02-10T19:47:44.445Z,5.00
2019-02-10T19:50:17.379Z,4.96
2019-02-10T19:53:27.797Z,4.90
2019-02-10T19:56:01.823Z,4.86
2019-02-10T19:58:35.815Z,4.69
2019-02-10T20:01:08.913Z,4.71
2019-02-10T20:03:43.798Z,4.72
2019-02-10T20:06:20.826Z,4.75
2019-02-10T20:08:56.783Z,4.75
2019-02-10T20:11:35.711Z,4.75
2019-02-10T20:14:10.972Z,4.76
2019-02-10T20:16:46.843Z,4.74
2019-02-10T20:19:36.046Z,4.78
2019-02-10T20:22:10.137Z,4.75
2019-02-10T20:25:14.567Z,4.76
2019-02-10T20:27:56.656Z,4.72
2019-02-10T20:30:29.659Z,4.71
2019-02-10T20:33:02.627Z,4.72
2019-02-10T20:35:36.746Z,4.72
2019-02-10T20:38:45.171Z,4.75
2019-02-10T20:41:19.143Z,4.76
2019-02-10T20:44:51.965Z,4.78
2019-02-10T20:47:26.160Z,4.96
2019-02-10T20:50:02.027Z,4.88
2019-02-10T20:52:37.020Z,4.87
2019-02-10T20:55:16.127Z,4.85
2019-02-10T20:57:49.092Z,4.83
2019-02-10T21:00:28.149Z,4.83
2019-02-10T21:03:02.059Z,4.80
2019-02-10T21:05:36.253Z,4.76
2019-02-10T21:08:11.055Z,4.72
2019-02-10T21:10:46.158Z,4.69
2019-02-10T21:13:38.447Z,4.68
2019-02-10T21:17:12.282Z,4.64
2019-02-10T21:19:45.294Z,4.63
2019-02-10T21:22:19.288Z,4.64
2019-02-10T21:24:55.238Z,4.66
2019-02-10T21:27:44.732Z,4.63
2019-02-10T21:31:16.896Z,4.63
2019-02-10T21:33:58.951Z,4.61
2019-02-10T21:36:33.940Z,4.65
2019-02-10T21:39:09.972Z,4.65
2019-02-10T21:41:52.950Z,4.66
2019-02-10T21:44:29.883Z,4.67
2019-02-10T21:47:03.607Z,4.68
2019-02-10T21:49:32.894Z,4.70
2019-02-10T21:52:01.672Z,4.72
2019-02-10T21:54:30.447Z,4.75
2019-02-10T21:56:59.276Z,4.74
2019-02-10T21:59:29.331Z,4.74
2019-02-10T22:01:58.186Z,4.74
2019-02-10T22:04:27.053Z,4.72
2019-02-10T22:06:56.491Z,4.72
2019-02-10T22:09:25.298Z,4.74
2019-02-10T22:11:54.092Z,4.76
2019-02-10T22:14:22.874Z,4.77
2019-02-10T22:16:51.662Z,4.79
2019-02-10T22:19:20.435Z,4.79
2019-02-10T22:21:49.226Z,4.79
2019-02-10T22:24:18.886Z,4.81
2019-02-10T22:26:47.667Z,4.82
2019-02-10T22:29:16.503Z,4.79
2019-02-10T22:31:45.299Z,4.77
2019-02-10T22:34:14.118Z,4.77
2019-02-10T22:36:42.941Z,4.79
2019-02-10T22:39:11.765Z,4.81
2019-02-10T22:41:40.559Z,4.81
2019-02-10T22:44:09.340Z,4.83
2019-02-10T22:46:38.137Z,4.85
2019-02-10T22:49:07.399Z,4.90
2019-02-10T22:51:36.162Z,4.92
2019-02-10T22:54:05.030Z,4.93
2019-02-10T22:56:33.813Z,4.94
2019-02-10T22:59:02.601Z,4.95
2019-02-10T23:01:31.362Z,4.99
2019-02-10T23:04:00.279Z,4.99
2019-02-10T23:06:29.006Z,4.98
2019-02-10T23:08:57.788Z,4.99
2019-02-10T23:11:26.683Z,5.01
2019-02-10T23:13:55.475Z,5.05
2019-02-10T23:16:24.260Z,5.05
2019-02-10T23:18:53.096Z,5.09
2019-02-10T23:21:21.986Z,5.09
2019-02-10T23:23:50.850Z,5.11
2019-02-10T23:26:20.107Z,5.11
2019-02-10T23:28:48.911Z,5.13
2019-02-10T23:31:19.514Z,5.12
2019-02-10T23:33:48.524Z,5.12
2019-02-10T23:36:17.303Z,5.11
2019-02-10T23:38:46.140Z,5.14
2019-02-10T23:41:15.040Z,5.15
2019-02-10T23:43:44.315Z,5.17
2019-02-10T23:46:13.155Z,5.19
2019-02-10T23:48:42.043Z,5.20
2019-02-10T23:51:13.338Z,5.20
2019-02-10T23:53:42.188Z,5.21
2019-02-10T23:56:11.126Z,5.20
2019-02-10T23:58:39.923Z,5.20
